Time;durP1;ratioP1;P1;durP2;ratioP2;P2;SDS_P1;SDS_P2;PMS_P1;PMS_P2;Temp;Humidity;BMP_temperature;BMP_pressure;BME280_temperature;BME280_humidity;BME280_pressure;Samples;Min_cycle;Max_cycle;Signal;HPM_P1;HPM_P2
2023/01/14 00:00:23;;;;;;;15.05;3.67;;;;;;;;;;4925566;29;20067;-90
2023/01/14 00:02:50;;;;;;;14.02;3.78;;;;;;;;;;4942188;29;20073;-96
2023/01/14 00:05:16;;;;;;;20.92;4.50;;;;;;;;;;4941898;28;20129;-96
2023/01/14 00:07:42;;;;;;;16.65;3.65;;;;;;;;;;4942442;28;20082;-95
2023/01/14 00:10:08;;;;;;;12.88;3.97;;;;;;;;;;4942020;28;20039;-96
2023/01/14 00:12:35;;;;;;;10.88;2.97;;;;;;;;;;4925922;29;20048;-95
2023/01/14 00:15:01;;;;;;;21.98;4.32;;;;;;;;;;4942047;29;20047;-95
2023/01/14 00:17:27;;;;;;;18.90;4.32;;;;;;;;;;4941805;29;20040;-95
2023/01/14 00:19:53;;;;;;;12.30;3.97;;;;;;;;;;4926007;29;20531;-94
2023/01/14 00:22:19;;;;;;;16.45;3.40;;;;;;;;;;4941416;29;20087;-89
2023/01/14 00:24:46;;;;;;;21.90;3.55;;;;;;;;;;4941491;29;20051;-95
2023/01/14 00:27:15;;;;;;;23.48;4.60;;;;;;;;;;4941489;29;20054;-92
2023/01/14 00:29:41;;;;;;;15.18;3.53;;;;;;;;;;4941099;29;20488;-90
2023/01/14 00:32:07;;;;;;;14.45;3.33;;;;;;;;;;4940871;29;20051;-90
2023/01/14 00:34:37;;;;;;;16.00;3.58;;;;;;;;;;4925167;28;20238;-89
2023/01/14 00:37:03;;;;;;;22.33;4.55;;;;;;;;;;4925401;28;20481;-91
2023/01/14 00:39:29;;;;;;;25.52;4.50;;;;;;;;;;4941180;28;20055;-91
2023/01/14 00:41:55;;;;;;;14.45;4.55;;;;;;;;;;4925279;28;20112;-91
2023/01/14 00:44:21;;;;;;;15.07;4.20;;;;;;;;;;4940333;28;20042;-91
2023/01/14 00:46:48;;;;;;;20.25;2.85;;;;;;;;;;4940502;29;20054;-92
2023/01/14 00:49:18;;;;;;;19.65;3.45;;;;;;;;;;4924996;28;20086;-91
2023/01/14 00:51:44;;;;;;;14.25;3.88;;;;;;;;;;4924485;29;20051;-89
2023/01/14 00:54:10;;;;;;;11.63;3.75;;;;;;;;;;4941030;29;20408;-89
2023/01/14 00:56:36;;;;;;;16.20;4.15;;;;;;;;;;4940334;29;20113;-89
2023/01/14 00:59:03;;;;;;;14.52;4.07;;;;;;;;;;4940197;29;20047;-91
2023/01/14 01:01:29;;;;;;;15.70;4.85;;;;;;;;;;4924452;29;20419;-90
2023/01/14 01:03:56;;;;;;;15.40;3.22;;;;;;;;;;4924708;29;20047;-90
2023/01/14 01:06:23;;;;;;;17.42;4.28;;;;;;;;;;4941430;29;20043;-91
2023/01/14 01:08:49;;;;;;;12.32;3.90;;;;;;;;;;4925501;29;20094;-91
2023/01/14 01:11:16;;;;;;;12.32;3.20;;;;;;;;;;4924399;29;20575;-88
2023/01/14 01:13:42;;;;;;;13.02;3.83;;;;;;;;;;4924587;28;20043;-91
2023/01/14 01:16:11;;;;;;;16.27;3.42;;;;;;;;;;4941036;28;20051;-93
2023/01/14 01:18:38;;;;;;;23.30;4.55;;;;;;;;;;4924660;28;20054;-90
2023/01/14 01:21:05;;;;;;;13.73;4.20;;;;;;;;;;4923940;28;20089;-93
2023/01/14 01:23:32;;;;;;;21.80;3.25;;;;;;;;;;4940056;29;20051;-91
2023/01/14 01:25:59;;;;;;;24.35;4.90;;;;;;;;;;4924216;28;20377;-88
2023/01/14 01:28:25;;;;;;;20.00;3.97;;;;;;;;;;4940413;29;20150;-89
2023/01/14 01:30:51;;;;;;;15.90;3.10;;;;;;;;;;4924364;28;20054;-91
2023/01/14 01:33:17;;;;;;;29.63;5.15;;;;;;;;;;4940014;28;20128;-89
2023/01/14 01:35:43;;;;;;;14.50;3.80;;;;;;;;;;4924508;29;20043;-89
2023/01/14 01:38:09;;;;;;;17.83;4.72;;;;;;;;;;4939628;28;20055;-90
2023/01/14 01:40:35;;;;;;;13.40;3.83;;;;;;;;;;4939502;29;20083;-89
2023/01/14 01:43:01;;;;;;;18.88;3.85;;;;;;;;;;4939325;29;20543;-90
2023/01/14 01:45:33;;;;;;;20.40;4.13;;;;;;;;;;4939363;28;20054;-88
2023/01/14 01:48:05;;;;;;;12.48;3.35;;;;;;;;;;4923410;29;20186;-89
2023/01/14 01:50:31;;;;;;;19.02;3.95;;;;;;;;;;4923425;28;20562;-88
2023/01/14 01:52:58;;;;;;;11.50;2.90;;;;;;;;;;4923403;29;20050;-90
2023/01/14 01:55:24;;;;;;;17.95;4.60;;;;;;;;;;4923175;29;20057;-90
2023/01/14 01:57:55;;;;;;;14.10;3.63;;;;;;;;;;4939128;28;20051;-92
2023/01/14 02:00:22;;;;;;;12.07;4.43;;;;;;;;;;4938925;29;20070;-92
2023/01/14 02:02:49;;;;;;;14.98;4.35;;;;;;;;;;4923018;28;20086;-91
2023/01/14 02:05:16;;;;;;;17.60;4.22;;;;;;;;;;4939094;29;20078;-88
2023/01/14 02:07:43;;;;;;;14.07;3.67;;;;;;;;;;4922949;28;20496;-89
2023/01/14 02:10:10;;;;;;;18.20;5.25;;;;;;;;;;4923289;28;20047;-88
2023/01/14 02:12:39;;;;;;;15.05;5.40;;;;;;;;;;4922763;28;20047;-88
2023/01/14 02:15:06;;;;;;;13.10;3.83;;;;;;;;;;4923054;29;20530;-89
2023/01/14 02:17:38;;;;;;;17.90;4.57;;;;;;;;;;4938851;28;20053;-88
2023/01/14 02:20:27;;;;;;;14.30;3.67;;;;;;;;;;4922725;29;20492;-88
2023/01/14 02:22:59;;;;;;;16.05;3.58;;;;;;;;;;4923072;29;20061;-89
2023/01/14 02:25:25;;;;;;;16.55;4.45;;;;;;;;;;4922741;28;20385;-88
2023/01/14 02:28:28;;;;;;;15.57;4.18;;;7.20;99.90;;;;;;4938313;29;20079;-89
2023/01/14 02:30:57;;;;;;;19.42;3.75;;;;;;;;;;4922548;29;20051;-89
2023/01/14 02:33:26;;;;;;;13.60;4.05;;;;;;;;;;4922914;29;20055;-88
2023/01/14 02:36:02;;;;;;;14.20;3.47;;;;;;;;;;4938404;29;20046;-88
2023/01/14 02:38:41;;;;;;;9.43;3.45;;;;;;;;;;4938533;28;20051;-89
2023/01/14 02:44:19;;;;;;;16.60;4.55;;;;;;;;;;4938175;29;20051;-89
2023/01/14 02:46:48;;;;;;;25.17;3.72;;;;;;;;;;4922400;29;20516;-89
2023/01/14 02:49:18;;;;;;;18.13;4.22;;;;;;;;;;4938368;28;20133;-88
2023/01/14 02:51:45;;;;;;;17.13;4.53;;;;;;;;;;4938004;29;20086;-88
2023/01/14 02:54:11;;;;;;;12.20;3.28;;;;;;;;;;4922148;29;20106;-87
2023/01/14 02:56:38;;;;;;;15.52;6.78;;;;;;;;;;4938193;29;20385;-88
2023/01/14 02:59:04;;;;;;;9.60;4.15;;;;;;;;;;4938272;29;20047;-90
2023/01/14 03:01:57;;;;;;;9.85;3.58;;;;;;;;;;4922368;29;20416;-88
2023/01/14 03:05:00;;;;;;;12.40;3.97;;;6.80;99.90;;;;;;4922536;29;20047;-90
2023/01/14 03:07:45;;;;;;;20.20;4.43;;;;;;;;;;4925306;29;20047;-89
2023/01/14 03:10:22;;;;;;;16.50;3.58;;;;;;;;;;4926384;29;20129;-89
2023/01/14 03:12:51;;;;;;;13.63;4.32;;;;;;;;;;4942196;29;20109;-91
2023/01/14 03:15:37;;;;;;;15.38;4.43;;;;;;;;;;4926561;28;20399;-89
2023/01/14 03:18:12;;;;;;;22.40;4.50;;;;;;;;;;4916106;28;20055;-88
2023/01/14 03:20:40;;;;;;;11.50;3.33;;;;;;;;;;4942073;29;20500;-89
2023/01/14 03:23:11;;;;;;;17.35;3.80;;;;;;;;;;4926408;29;20502;-89
2023/01/14 03:25:39;;;;;;;19.25;4.90;;;;;;;;;;4925762;28;20047;-89
2023/01/14 03:28:07;;;;;;;11.63;3.70;;;;;;;;;;4925715;28;20098;-87
2023/01/14 03:30:36;;;;;;;13.60;3.17;;;;;;;;;;4925912;28;20522;-88
2023/01/14 03:33:11;;;;;;;18.38;3.67;;;;;;;;;;4925686;29;20047;-88
2023/01/14 03:35:41;;;;;;;22.23;4.28;;;;;;;;;;4941558;29;20040;-88
2023/01/14 03:38:10;;;;;;;17.75;4.25;;;;;;;;;;4925854;29;20400;-88
2023/01/14 03:40:37;;;;;;;25.13;3.95;;;6.90;99.90;;;;;;4941419;29;20047;-88
2023/01/14 03:43:31;;;;;;;14.25;4.45;;;6.60;99.90;;;;;;4941835;28;20048;-88
2023/01/14 03:45:58;;;;;;;19.02;3.80;;;;;;;;;;4941148;29;20134;-88
2023/01/14 03:48:24;;;;;;;17.85;3.70;;;;;;;;;;4941145;29;20047;-88
2023/01/14 03:50:53;;;;;;;21.00;3.80;;;;;;;;;;4940934;28;20047;-88
2023/01/14 03:53:23;;;;;;;23.92;4.25;;;;;;;;;;4941054;29;20051;-88
2023/01/14 03:56:15;;;;;;;9.80;3.25;;;;;;;;;;4940970;28;20054;-87
2023/01/14 03:59:01;;;;;;;17.42;3.83;;;;;;;;;;4925325;29;20047;-88
2023/01/14 04:01:30;;;;;;;17.70;3.95;;;;;;;;;;4924670;29;20055;-87
2023/01/14 04:03:57;;;;;;;19.38;4.38;;;;;;;;;;4925212;28;20522;-88
2023/01/14 04:06:23;;;;;;;16.75;3.78;;;;;;;;;;4925534;28;20039;-88
2023/01/14 04:08:49;;;;;;;15.38;3.65;;;;;;;;;;4941511;29;20139;-89
2023/01/14 04:11:15;;;;;;;25.45;4.45;;;;;;;;;;4940921;28;20046;-89
2023/01/14 04:16:25;;;;;;;28.95;6.05;;;;;;;;;;4940734;28;20102;-88
2023/01/14 04:18:51;;;;;;;23.92;6.57;;;;;;;;;;4940900;28;20135;-89
2023/01/14 04:21:17;;;;;;;21.25;3.78;;;;;;;;;;4941398;29;20043;-91
2023/01/14 04:23:43;;;;;;;16.58;4.90;;;;;;;;;;4940567;29;20043;-91
2023/01/14 04:26:10;;;;;;;17.40;3.60;;;;;;;;;;4940779;29;20082;-92
2023/01/14 04:28:36;;;;;;;15.90;4.07;;;;;;;;;;4940817;29;20507;-89
2023/01/14 04:31:02;;;;;;;8.85;3.45;;;;;;;;;;4941033;28;20401;-89
2023/01/14 04:33:28;;;;;;;19.00;4.03;;;;;;;;;;4940643;29;20058;-88
2023/01/14 04:35:54;;;;;;;19.52;3.92;;;;;;;;;;4940683;28;20090;-88
2023/01/14 04:38:20;;;;;;;20.73;4.50;;;;;;;;;;4925121;28;20055;-88
2023/01/14 04:40:50;;;;;;;15.20;3.75;;;;;;;;;;4940286;28;20507;-87
2023/01/14 04:43:16;;;;;;;12.00;3.53;;;;;;;;;;4940806;29;20047;-88
2023/01/14 04:45:42;;;;;;;17.48;3.95;;;;;;;;;;4924391;28;20047;-87
2023/01/14 04:48:08;;;;;;;23.90;5.65;;;;;;;;;;4924371;28;20137;-88
2023/01/14 04:50:34;;;;;;;13.63;4.65;;;;;;;;;;4924802;29;20043;-88
2023/01/14 04:53:05;;;;;;;11.05;4.00;;;;;;;;;;4940354;29;20051;-89
2023/01/14 04:55:31;;;;;;;17.77;4.45;;;;;;;;;;4924351;29;20043;-88
2023/01/14 04:57:57;;;;;;;18.30;3.28;;;;;;;;;;4939908;28;20138;-91
2023/01/14 05:00:24;;;;;;;14.63;3.65;;;;;;;;;;4939801;28;20078;-88
2023/01/14 05:02:50;;;;;;;13.25;3.65;;;;;;;;;;4939915;29;20058;-88
2023/01/14 05:05:16;;;;;;;16.33;5.32;;;;;;;;;;4924279;28;20085;-88
2023/01/14 05:07:42;;;;;;;17.63;3.50;;;;;;;;;;4923866;29;20047;-88
2023/01/14 05:10:09;;;;;;;16.52;3.88;;;;;;;;;;4939718;28;20043;-88
2023/01/14 05:12:35;;;;;;;18.95;4.15;;;;;;;;;;4923840;29;20051;-88
2023/01/14 05:15:01;;;;;;;13.73;3.30;;;;;;;;;;4939574;28;20058;-88
2023/01/14 05:17:27;;;;;;;20.33;3.42;;;;;;;;;;4939617;29;20046;-88
2023/01/14 05:19:53;;;;;;;22.67;3.90;;;;;;;;;;4939628;29;20050;-89
2023/01/14 05:22:19;;;;;;;17.73;4.70;;;;;;;;;;4939658;29;20054;-88
2023/01/14 05:24:45;;;;;;;15.80;3.25;;;;;;;;;;4939488;29;20051;-88
2023/01/14 05:27:11;;;;;;;14.57;3.08;;;;;;;;;;4939359;29;20051;-88
2023/01/14 05:29:38;;;;;;;18.17;4.38;;;;;;;;;;4939270;29;20126;-88
2023/01/14 05:32:05;;;;;;;22.90;4.13;;;;;;;;;;4939242;28;20062;-88
2023/01/14 05:34:31;;;;;;;13.57;3.72;;;;;;;;;;4939252;28;20050;-89
2023/01/14 05:36:57;;;;;;;14.05;3.67;;;;;;;;;;4923338;29;20047;-87
2023/01/14 05:39:23;;;;;;;8.02;3.15;;;;;;;;;;4939120;29;20050;-88
2023/01/14 05:47:18;;;;;;;11.10;3.08;;;;;;;;;;4939314;29;20408;-90
2023/01/14 05:49:44;;;;;;;15.57;3.13;;;;;;;;;;4939766;29;20110;-90
2023/01/14 05:52:10;;;;;;;10.98;4.50;;;;;;;;;;4938998;29;20054;-87
2023/01/14 05:54:37;;;;;;;14.45;4.13;;;;;;;;;;4938999;29;20050;-88
2023/01/14 05:57:03;;;;;;;16.05;4.40;;;;;;;;;;4938913;29;20043;-88
2023/01/14 05:59:29;;;;;;;16.83;3.78;;;;;;;;;;4939039;29;20043;-88
2023/01/14 06:07:24;;;;;;;12.95;3.70;;;;;;;;;;4925423;29;20389;-89
2023/01/14 06:09:50;;;;;;;18.38;3.80;;;;;;;;;;4938736;28;20051;-88
2023/01/14 06:12:33;;;;;;;21.48;4.80;;;;;;;;;;4922955;28;20051;-88
2023/01/14 06:15:00;;;;;;;11.15;3.67;;;;;;;;;;4938548;28;20110;-88
2023/01/14 06:17:34;;;;;;;24.83;4.47;;;;;;;;;;4938679;28;20133;-89
2023/01/14 06:20:00;;;;;;;23.58;4.63;;;;;;;;;;4938802;29;20054;-88
2023/01/14 06:22:26;;;;;;;13.43;5.00;;;;;;;;;;4939238;28;20113;-89
2023/01/14 06:24:52;;;;;;;21.48;4.40;;;;;;;;;;4939169;28;20051;-89
2023/01/14 06:27:18;;;;;;;18.55;4.93;;;;;;;;;;4922695;28;20114;-89
2023/01/14 06:29:44;;;;;;;19.75;4.75;;;;;;;;;;4922992;28;20073;-89
2023/01/14 06:32:10;;;;;;;16.55;4.60;;;;;;;;;;4938995;28;20046;-90
2023/01/14 06:34:36;;;;;;;11.95;3.88;;;;;;;;;;4938542;28;20047;-89
2023/01/14 06:37:02;;;;;;;14.02;4.43;;;;;;;;;;4938730;29;20050;-91
2023/01/14 06:39:28;;;;;;;21.83;4.93;;;;;;;;;;4938747;29;20523;-91
2023/01/14 06:41:54;;;;;;;12.07;5.20;;;;;;;;;;4937825;29;20575;-89
2023/01/14 06:44:23;;;;;;;15.98;4.43;;;;;;;;;;4923079;29;20515;-89
2023/01/14 06:46:50;;;;;;;19.77;6.28;;;;;;;;;;4938388;29;20507;-89
2023/01/14 06:49:16;;;;;;;22.08;6.75;;;;;;;;;;4938756;29;20054;-89
2023/01/14 06:51:42;;;;;;;16.00;4.90;;;;;;;;;;4938979;28;20035;-89
2023/01/14 06:54:08;;;;;;;12.70;4.63;;;;;;;;;;4922553;28;20075;-89
2023/01/14 06:56:35;;;;;;;20.35;6.07;;;;;;;;;;4922445;29;20070;-89
2023/01/14 06:59:01;;;;;;;19.65;5.28;;;;;;;;;;4938233;29;20045;-90
2023/01/14 07:01:27;;;;;;;25.85;6.32;;;;;;;;;;4922522;28;20063;-90
2023/01/14 07:03:53;;;;;;;27.35;5.13;;;;;;;;;;4938640;28;20054;-92
2023/01/14 07:06:19;;;;;;;17.67;6.03;;;;;;;;;;4922724;28;20039;-93
2023/01/14 07:08:45;;;;;;;18.88;5.95;;;;;;;;;;4938644;29;20130;-92
2023/01/14 07:11:14;;;;;;;18.33;5.85;;;;;;;;;;4938560;28;20039;-93
2023/01/14 07:13:40;;;;;;;22.40;5.63;;;;;;;;;;4938592;28;20047;-93
2023/01/14 07:16:06;;;;;;;25.08;6.90;;;;;;;;;;4939008;29;20051;-92
2023/01/14 07:18:32;;;;;;;31.77;5.78;;;;;;;;;;4922733;29;20057;-93
2023/01/14 07:20:59;;;;;;;20.15;6.38;;;;;;;;;;4938368;28;20094;-94
2023/01/14 07:23:26;;;;;;;18.33;6.25;;;;;;;;;;4923133;28;20047;-90
2023/01/14 07:25:55;;;;;;;22.67;8.20;;;;;;;;;;4938527;28;20035;-91
2023/01/14 07:28:22;;;;;;;29.45;7.35;;;;;;;;;;4922391;28;20094;-90
2023/01/14 07:30:48;;;;;;;19.67;8.05;;;;;;;;;;4923820;28;20039;-91
2023/01/14 07:33:14;;;;;;;16.75;8.13;;;;;;;;;;4940008;29;20059;-90
2023/01/14 07:35:40;;;;;;;15.88;6.18;;;;;;;;;;4923568;28;20067;-94
2023/01/14 07:38:07;;;;;;;32.33;7.35;;;;;;;;;;4938428;28;20404;-89
2023/01/14 07:40:33;;;;;;;17.63;6.22;;;;;;;;;;4922139;28;20043;-89
2023/01/14 07:43:00;;;;;;;20.15;5.45;;;;;;;;;;4922068;28;20044;-90
2023/01/14 07:45:27;;;;;;;17.00;6.22;;;;;;;;;;4922124;29;20047;-90
2023/01/14 07:47:53;;;;;;;18.40;6.10;;;;;;;;;;4922220;28;20055;-90
2023/01/14 07:50:20;;;;;;;18.27;6.72;;;;;;;;;;4923200;28;20065;-91
2023/01/14 07:52:56;;;;;;;17.80;5.18;;;;;;;;;;4924133;29;20050;-91
2023/01/14 07:55:22;;;;;;;23.98;6.32;;;;;;;;;;4925925;28;20078;-91
2023/01/14 07:57:49;;;;;;;18.77;5.78;;;;;;;;;;4925962;28;20051;-91
2023/01/14 08:00:15;;;;;;;18.65;6.30;;;;;;;;;;4941379;29;20043;-93
2023/01/14 08:02:41;;;;;;;25.00;5.88;;;;;;;;;;4925294;28;20055;-93
2023/01/14 08:05:08;;;;;;;23.08;6.88;;;;;;;;;;4941554;29;20089;-92
2023/01/14 08:07:34;;;;;;;24.15;6.18;;;;;;;;;;4925210;28;20048;-89
2023/01/14 08:10:00;;;;;;;27.52;5.72;;;;;;;;;;4958556;28;20043;-89
2023/01/14 08:12:28;;;;;;;27.85;7.47;;;;;;;;;;4941074;28;20055;-89
2023/01/14 08:14:54;;;;;;;17.85;6.15;;;;;;;;;;4941023;28;20130;-89
2023/01/14 08:17:20;;;;;;;18.83;5.72;;;;;;;;;;4941214;28;20118;-91
2023/01/14 08:19:46;;;;;;;17.90;5.45;;;;;;;;;;4941204;29;20154;-89
2023/01/14 08:22:12;;;;;;;25.40;5.85;;;;;;;;;;4925151;29;20047;-89
2023/01/14 08:24:39;;;;;;;19.17;5.60;;;;;;;;;;4925061;29;20058;-86
2023/01/14 08:27:05;;;;;;;40.20;6.90;;;;;;;;;;4924853;29;20054;-90
2023/01/14 08:29:31;;;;;;;40.05;6.40;;;;;;;;;;4940833;28;20130;-91
2023/01/14 08:31:57;;;;;;;32.95;6.15;;;;;;;;;;4940975;28;20047;-92
2023/01/14 08:34:24;;;;;;;29.88;6.80;;;;;;;;;;4940983;29;20047;-91
2023/01/14 08:36:50;;;;;;;21.88;4.88;;;;;;;;;;4940906;29;20051;-88
2023/01/14 08:39:16;;;;;;;23.52;5.50;;;;;;;;;;4940809;29;20046;-90
2023/01/14 08:41:42;;;;;;;24.73;6.18;;;;;;;;;;4925147;29;20378;-91
2023/01/14 08:44:09;;;;;;;22.52;5.25;;;;;;;;;;4925240;28;20102;-93
2023/01/14 08:46:35;;;;;;;24.50;5.30;;;;;;;;;;4925111;28;20047;-92
2023/01/14 08:49:01;;;;;;;28.65;7.47;;;;;;;;;;4925182;28;20404;-91
2023/01/14 08:51:29;;;;;;;23.20;5.70;;;;;;;;;;4924969;28;20389;-92
2023/01/14 08:53:55;;;;;;;18.90;5.00;;;;;;;;;;4941155;29;20480;-91
2023/01/14 08:56:22;;;;;;;24.83;6.88;;;;;;;;;;4941413;28;20074;-92
2023/01/14 08:58:48;;;;;;;25.23;6.15;;;;;;;;;;4941391;29;20047;-92
2023/01/14 09:01:15;;;;;;;21.02;5.43;;;;;;;;;;4941690;28;20058;-92
2023/01/14 09:03:42;;;;;;;16.90;4.50;;;;;;;;;;4940572;29;20519;-93
2023/01/14 09:06:12;;;;;;;15.65;4.63;;;;;;;;;;4941684;29;20473;-92
2023/01/14 09:17:19;;;;;;;22.23;5.07;;;;;;;;;;4920213;29;20101;-91
2023/01/14 09:19:47;;;;;;;16.02;5.30;;;;;;;;;;4904541;29;20055;-91
2023/01/14 09:22:15;;;;;;;17.70;4.43;;;;;;;;;;4913889;29;20102;-91
2023/01/14 09:24:41;;;;;;;19.90;5.32;;;;;;;;;;4923939;29;20054;-92
2023/01/14 09:27:07;;;;;;;16.45;4.85;;;;;;;;;;4923916;29;20047;-91
2023/01/14 09:29:34;;;;;;;18.70;4.10;;;;;;;;;;4943799;28;20492;-92
2023/01/14 09:32:00;;;;;;;16.75;5.43;;;;;;;;;;4928163;28;20102;-91
2023/01/14 09:34:26;;;;;;;14.63;4.35;;;;;;;;;;4943519;29;20047;-91
2023/01/14 09:36:54;;;;;;;20.85;4.57;;;;;;;;;;4943244;29;20047;-92
2023/01/14 09:39:20;;;;;;;17.58;4.03;;;;;;;;;;4929406;28;20063;-91
2023/01/14 09:41:54;;;;;;;14.40;3.67;;;;;;;;;;4949889;29;20107;-94
2023/01/14 09:44:21;;;;;;;8.32;2.72;;;;;;;;;;4950077;28;20046;-96
2023/01/14 09:46:53;;;;;;;8.65;3.05;;;;;;;;;;4947612;28;20050;-94
2023/01/14 09:49:24;;;;;;;11.13;3.30;;;;;;;;;;4933165;28;20047;-91
2023/01/14 09:51:57;;;;;;;15.18;3.65;;;;;;;;;;4930031;28;20054;-91
2023/01/14 09:54:24;;;;;;;9.07;2.55;;;;;;;;;;4941536;28;20051;-91
2023/01/14 09:57:06;;;;;;;7.07;2.58;;;;;;;;;;4929465;29;20396;-91
2023/01/14 09:59:47;;;;;;;11.93;3.47;;;;;;;;;;4945123;28;20157;-95
2023/01/14 10:02:17;;;;;;;7.45;3.78;;;;;;;;;;4933982;29;20174;-92
2023/01/14 10:05:21;;;;;;;10.05;3.08;;;;;;;;;;4933014;29;20047;-91
2023/01/14 10:07:48;;;;;;;9.07;2.92;;;;;;;;;;4874822;29;20139;-91
2023/01/14 10:10:23;;;;;;;12.98;3.50;;;;;;;;;;4892079;29;20048;-91
2023/01/14 10:12:50;;;;;;;6.32;2.80;;;;;;;;;;4922844;28;20051;-90
2023/01/14 10:15:19;;;;;;;7.07;2.90;;;;;;;;;;4925798;28;20516;-91
2023/01/14 10:17:50;;;;;;;4.50;3.22;;;;;;;;;;4936680;28;20519;-91
2023/01/14 10:20:21;;;;;;;11.23;2.47;;;;;;;;;;4927767;29;20047;-90
2023/01/14 10:23:02;;;;;;;2.35;1.70;;;;;;;;;;4923175;28;20043;-92
2023/01/14 10:25:28;;;;;;;5.85;2.70;;;;;;;;;;4923109;28;20054;-91
2023/01/14 10:27:56;;;;;;;6.88;2.75;;;;;;;;;;4923021;28;20039;-91
2023/01/14 10:30:24;;;;;;;5.75;2.22;;;;;;;;;;4923110;29;20526;-91
2023/01/14 10:32:52;;;;;;;4.78;2.53;;;;;;;;;;4923082;29;20157;-91
2023/01/14 10:35:23;;;;;;;3.90;1.90;;;;;;;;;;4922921;29;20397;-92
2023/01/14 10:37:49;;;;;;;4.57;1.92;;;;;;;;;;4922862;29;20054;-92
2023/01/14 10:40:21;;;;;;;4.43;2.08;;;;;;;;;;4923024;28;20126;-90
2023/01/14 10:42:47;;;;;;;5.95;2.30;;;;;;;;;;4938582;28;20058;-91
2023/01/14 10:45:13;;;;;;;4.43;1.80;;;;;;;;;;4923399;29;20039;-92
2023/01/14 10:47:40;;;;;;;4.68;2.20;;;;;;;;;;4922882;29;20045;-91
2023/01/14 10:50:23;;;;;;;1.30;1.20;;;;;;;;;;4938447;29;20134;-92
2023/01/14 10:52:50;;;;;;;1.98;1.15;;;;;;;;;;4922393;28;20054;-90
2023/01/14 10:55:16;;;;;;;3.63;1.73;;;;;;;;;;4922315;28;20043;-91
2023/01/14 10:57:55;;;;;;;2.28;1.90;;;;;;;;;;4922349;28;20051;-91
2023/01/14 11:00:31;;;;;;;2.33;1.48;;;;;;;;;;4922374;29;20050;-91
2023/01/14 11:02:58;;;;;;;4.68;1.98;;;;;;;;;;4922254;28;20063;-91
2023/01/14 11:05:28;;;;;;;3.65;1.70;;;;;;;;;;4922896;28;20043;-91
2023/01/14 11:07:56;;;;;;;2.45;1.48;;;;;;;;;;4922845;28;20083;-94
2023/01/14 11:10:24;;;;;;;2.63;1.30;;;;;;;;;;4938221;29;20051;-91
2023/01/14 11:13:15;;;;;;;7.35;2.78;;;;;;;;;;4939023;29;20054;-91
2023/01/14 11:15:45;;;;;;;1.52;1.38;;;;;;;;;;4923001;28;20051;-94
2023/01/14 11:18:24;;;;;;;3.88;1.65;;;;;;;;;;4922639;28;20131;-92
2023/01/14 11:20:55;;;;;;;2.88;1.63;;;;;;;;;;4923522;29;20050;-92
2023/01/14 11:23:32;;;;;;;6.35;1.67;;;;;;;;;;4939003;29;20047;-93
2023/01/14 11:26:02;;;;;;;2.58;1.75;;;;;;;;;;4938140;29;20039;-92
2023/01/14 11:28:28;;;;;;;4.40;1.70;;;;;;;;;;4925253;29;20078;-92
2023/01/14 11:30:54;;;;;;;6.60;1.77;;;;;;;;;;4929165;29;20567;-91
2023/01/14 11:33:25;;;;;;;2.22;1.83;;;;;;;;;;4946367;28;20070;-91
2023/01/14 11:35:54;;;;;;;7.68;1.65;;;;;;;;;;4931173;28;20047;-92
2023/01/14 11:45:12;;;;;;;3.85;1.73;;;;;;;;;;4932108;29;20100;-91
2023/01/14 11:47:46;;;;;;;1.40;1.30;;;;;;;;;;4950092;29;20067;-91
2023/01/14 11:50:27;;;;;;;2.72;1.60;;;;;;;;;;4919071;29;20059;-92
2023/01/14 11:53:19;;;;;;;1.67;1.55;;;7.20;99.90;;;;;;4918582;29;20046;-91
2023/01/14 11:55:52;;;;;;;3.40;1.88;;;;;;;;;;4902726;29;20056;-92
2023/01/14 11:58:26;;;;;;;1.98;1.80;;;;;;;;;;4934903;29;20055;-91
2023/01/14 12:01:03;;;;;;;4.25;1.80;;;;;;;;;;4918401;29;20076;-91
2023/01/14 12:03:35;;;;;;;2.13;1.50;;;;;;;;;;4913296;29;20199;-91
2023/01/14 12:06:09;;;;;;;2.88;1.30;;;;;;;;;;4913600;29;20055;-90
2023/01/14 12:08:36;;;;;;;4.43;2.20;;;;;;;;;;4914775;29;20066;-91
2023/01/14 12:11:03;;;;;;;2.28;1.40;;;;;;;;;;4915191;29;20034;-90
2023/01/14 12:19:27;;;;;;;4.85;2.15;;;7.40;99.90;;;;;;4944634;29;20055;-90
2023/01/14 12:22:18;;;;;;;2.50;1.50;;;;;;;;;;4937835;29;20051;-90
2023/01/14 12:24:47;;;;;;;3.28;1.52;;;;;;;;;;4938054;29;20227;-90
2023/01/14 12:27:41;;;;;;;2.78;1.95;;;;;;;;;;4937489;29;20095;-90
2023/01/14 12:30:13;;;;;;;;;;;7.30;99.90;;;;;;4938194;29;20051;-89
2023/01/14 12:32:41;;;;;;;3.85;1.60;;;;;;;;;;4937662;29;20272;-90
2023/01/14 12:35:11;;;;;;;1.48;1.25;;;;;;;;;;4937675;29;20046;-89
2023/01/14 12:37:54;;;;;;;2.00;1.40;;;;;;;;;;4937440;29;20110;-90
2023/01/14 12:46:14;;;;;;;4.43;1.40;;;;;;;;;;4937529;29;20111;-90
2023/01/14 12:48:40;;;;;;;1.90;1.17;;;;;;;;;;4937473;29;20051;-89
2023/01/14 12:51:24;;;;;;;1.50;1.40;;;;;;;;;;4937640;29;20044;-89
2023/01/14 12:53:58;;;;;;;2.97;1.17;;;;;;;;;;4937397;29;20135;-89
2023/01/14 12:56:35;;;;;;;1.48;1.20;;;;;;;;;;4938594;29;20334;-88
2023/01/14 12:59:09;;;;;;;1.83;1.33;;;;;;;;;;4937869;29;20081;-89
2023/01/14 13:01:41;;;;;;;1.77;1.20;;;;;;;;;;4940437;29;20051;-89
2023/01/14 13:04:23;;;;;;;1.52;1.10;;;;;;;;;;4924619;28;20051;-88
2023/01/14 13:06:59;;;;;;;3.97;1.50;;;;;;;;;;4924657;29;20052;-88
2023/01/14 13:09:30;;;;;;;1.70;1.35;;;;;;;;;;4924466;29;20058;-91
2023/01/14 13:11:57;;;;;;;2.13;1.30;;;;;;;;;;4940280;29;20039;-87
2023/01/14 13:14:35;;;;;;;1.08;1.00;;;;;;;;;;4924096;29;20491;-88
2023/01/14 13:17:22;;;;;;;2.10;1.10;;;;;;;;;;4939949;28;20110;-88
2023/01/14 13:19:52;;;;;;;2.22;1.08;;;;;;;;;;4895326;28;20416;-88
2023/01/14 13:22:37;;;;;;;2.58;1.35;;;;;;;;;;4923915;28;20054;-91
2023/01/14 13:25:11;;;;;;;1.35;1.08;;;;;;;;;;4939521;29;20463;-88
2023/01/14 13:27:38;;;;;;;1.10;0.90;;;;;;;;;;4939483;29;20047;-88
2023/01/14 13:30:19;;;;;;;1.42;1.13;;;;;;;;;;4923678;29;20215;-88
2023/01/14 13:33:08;;;;;;;0.88;0.88;;;;;;;;;;4923460;28;20047;-88
2023/01/14 13:35:36;;;;;;;2.45;0.98;;;8.50;99.90;;;;;;4939459;29;20470;-88
2023/01/14 13:38:03;;;;;;;1.17;1.00;;;;;;;;;;4923359;29;20547;-88
2023/01/14 13:40:36;;;;;;;1.48;0.70;;;;;;;;;;4923635;29;20396;-87
2023/01/14 13:43:04;;;;;;;2.05;0.90;;;;;;;;;;4923247;28;20138;-88
2023/01/14 13:45:35;;;;;;;0.77;0.77;;;8.60;99.90;;;;;;4923304;28;20086;-87
2023/01/14 13:48:22;;;;;;;1.10;1.00;;;;;;;;;;4938876;29;20061;-87
2023/01/14 13:50:49;;;;;;;1.25;0.98;;;;;;;;;;4923007;29;20452;-87
2023/01/14 13:53:18;;;;;;;0.70;0.70;;;;;;;;;;4939017;29;20065;-88
2023/01/14 13:55:51;;;;;;;0.75;0.75;;;;;;;;;;4922989;28;20106;-88
2023/01/14 13:58:19;;;;;;;0.60;0.60;;;;;;;;;;4939115;28;20122;-88
2023/01/14 14:00:46;;;;;;;0.75;0.75;;;;;;;;;;4938713;28;20134;-88
2023/01/14 14:03:25;;;;;;;0.75;0.75;;;;;;;;;;4922632;29;20518;-87
2023/01/14 14:06:11;;;;;;;2.88;0.93;;;;;;;;;;4923324;29;20051;-87
2023/01/14 14:08:38;;;;;;;1.13;1.02;;;;;;;;;;4938440;28;20106;-89
2023/01/14 14:11:06;;;;;;;1.40;1.30;;;;;;;;;;4922753;28;20135;-89
2023/01/14 14:16:27;;;;;;;0.70;0.70;;;;;;;;;;4939589;28;20114;-88
2023/01/14 14:18:57;;;;;;;2.80;1.17;;;;;;;;;;4922876;28;20705;-88
2023/01/14 14:21:25;;;;;;;2.28;1.00;;;;;;;;;;4922639;29;20050;-88
2023/01/14 14:23:57;;;;;;;0.73;0.73;;;9.40;99.90;;;;;;4938499;29;20465;-88
2023/01/14 14:26:27;;;;;;;0.80;0.80;;;;;;;;;;4938413;29;20058;-88
2023/01/14 14:28:55;;;;;;;2.10;0.80;;;;;;;;;;4922296;29;20058;-89
2023/01/14 14:31:22;;;;;;;1.20;1.10;;;;;;;;;;4938334;28;20043;-90
2023/01/14 14:33:59;;;;;;;1.55;1.20;;;;;;;;;;4938803;29;20055;-88
2023/01/14 14:36:27;;;;;;;0.93;0.93;;;;;;;;;;4922840;28;20043;-89
2023/01/14 14:38:54;;;;;;;0.70;0.70;;;;;;;;;;4938592;29;20102;-89
2023/01/14 14:41:25;;;;;;;0.80;0.80;;;;;;;;;;4923144;28;20043;-89
2023/01/14 14:43:56;;;;;;;1.20;1.10;;;;;;;;;;4922577;29;20047;-88
2023/01/14 14:46:23;;;;;;;1.75;0.90;;;;;;;;;;4922750;28;20039;-91
2023/01/14 14:48:49;;;;;;;0.75;0.75;;;;;;;;;;4938462;28;20053;-88
2023/01/14 14:51:26;;;;;;;0.70;0.70;;;;;;;;;;4938328;28;20043;-89
2023/01/14 14:53:52;;;;;;;0.80;0.80;;;;;;;;;;4922800;28;20051;-89
2023/01/14 14:56:19;;;;;;;1.30;0.70;;;;;;;;;;4938985;29;20488;-90
2023/01/14 14:58:50;;;;;;;0.80;0.80;;;9.70;99.90;;;;;;4922776;29;20443;-90
2023/01/14 15:01:16;;;;;;;1.17;0.60;;;;;;;;;;4921541;29;20047;-89
2023/01/14 15:03:43;;;;;;;0.80;0.80;;;;;;;;;;4922146;28;20420;-89
2023/01/14 15:06:12;;;;;;;0.80;0.80;;;9.70;99.90;;;;;;4922334;29;20113;-89
2023/01/14 15:08:39;;;;;;;0.80;0.80;;;;;;;;;;4938204;29;20054;-89
2023/01/14 15:11:08;;;;;;;0.80;0.80;;;;;;;;;;4922135;28;20419;-89
2023/01/14 15:13:37;;;;;;;0.70;0.70;;;;;;;;;;4921929;29;20091;-89
2023/01/14 15:16:03;;;;;;;0.80;0.80;;;;;;;;;;4937742;29;20040;-89
2023/01/14 15:18:48;;;;;;;0.80;0.80;;;;;;;;;;4937978;29;20086;-89
2023/01/14 15:21:18;;;;;;;0.50;0.50;;;;;;;;;;4922355;29;20043;-89
2023/01/14 15:23:47;;;;;;;0.65;0.63;;;;;;;;;;4922192;28;20055;-90
2023/01/14 15:26:28;;;;;;;1.08;0.93;;;9.80;99.90;;;;;;4937973;28;20054;-90
2023/01/14 15:28:55;;;;;;;0.80;0.68;;;;;;;;;;4937881;29;20051;-90
2023/01/14 15:31:26;;;;;;;0.50;0.50;;;;;;;;;;4938205;29;20043;-88